Time;durP1;ratioP1;P1;durP2;ratioP2;P2;SDS_P1;SDS_P2;PMS_P1;PMS_P2;Temp;Humidity;BMP_temperature;BMP_pressure;BME280_temperature;BME280_humidity;BME280_pressure;Samples;Min_cycle;Max_cycle;Signal;HPM_P1;HPM_P2
2022/11/08 00:01:33;;;;;;;;;;;13.30;99.90;;;;;;5156721;27;20095;-40
2022/11/08 00:03:59;;;;;;;;;;;13.30;99.90;;;;;;5156828;27;19914;-39
2022/11/08 00:14:37;;;;;;;;;;;13.30;99.90;;;;;;5155787;27;19963;-38
2022/11/08 00:17:03;;;;;;;;;;;13.30;99.90;;;;;;5156265;27;19923;-41
2022/11/08 00:19:28;;;;;;;;;;;13.30;99.90;;;;;;5155774;27;20002;-40
2022/11/08 00:21:54;;;;;;;;;;;13.30;99.90;;;;;;5156306;27;19934;-39
2022/11/08 00:24:19;;;;;;;;;;;13.30;99.90;;;;;;5156437;27;19990;-40
2022/11/08 00:26:45;;;;;;;;;;;13.30;99.90;;;;;;5155034;27;20425;-38
2022/11/08 00:29:10;;;;;;;;;;;13.30;99.90;;;;;;5155354;27;19915;-39
2022/11/08 00:31:36;;;;;;;;;;;13.30;99.90;;;;;;5156020;27;19922;-39
2022/11/08 00:34:01;;;;;;;;;;;13.30;99.90;;;;;;5155267;27;19976;-38
2022/11/08 00:36:27;;;;;;;;;;;13.30;99.90;;;;;;5155616;27;19926;-42
2022/11/08 00:38:52;;;;;;;;;;;13.20;99.90;;;;;;5156195;27;19912;-39
2022/11/08 00:41:18;;;;;;;;;;;13.20;99.90;;;;;;5154998;27;19933;-39
2022/11/08 00:43:44;;;;;;;;;;;13.20;99.90;;;;;;5155017;27;19919;-41
2022/11/08 00:46:09;;;;;;;;;;;13.20;99.90;;;;;;5155726;27;20369;-39
2022/11/08 00:48:35;;;;;;;;;;;13.20;99.90;;;;;;5154573;27;19917;-40
2022/11/08 00:51:02;;;;;;;;;;;13.10;99.90;;;;;;5155496;27;19915;-42
2022/11/08 00:53:27;;;;;;;;;;;13.10;99.90;;;;;;5154771;27;19911;-39
2022/11/08 00:56:00;;;;;;;;;;;13.00;99.90;;;;;;5154602;27;19926;-38
2022/11/08 00:58:26;;;;;;;;;;;13.00;99.90;;;;;;5155728;27;19911;-38
2022/11/08 01:00:52;;;;;;;;;;;12.90;99.90;;;;;;5155515;27;19911;-40
2022/11/08 01:03:17;;;;;;;;;;;12.80;99.90;;;;;;5154634;27;19911;-41
2022/11/08 01:05:43;;;;;;;;;;;12.80;99.90;;;;;;5155493;27;19950;-41
2022/11/08 01:08:09;;;;;;;;;;;12.80;99.90;;;;;;5155354;27;20269;-39
2022/11/08 01:10:34;;;;;;;;;;;12.70;99.90;;;;;;5154335;27;19911;-39
2022/11/08 01:13:00;;;;;;;;;;;12.70;99.90;;;;;;5155081;27;19911;-38
2022/11/08 01:15:25;;;;;;;;;;;12.60;99.90;;;;;;5154760;27;19911;-38
2022/11/08 01:17:51;;;;;;;;;;;12.50;99.90;;;;;;5154539;27;19907;-38
2022/11/08 01:20:16;;;;;;;;;;;12.50;99.90;;;;;;5136645;27;19946;-38
2022/11/08 01:22:42;;;;;;;;;;;12.40;99.90;;;;;;5155168;27;20321;-42
2022/11/08 01:25:07;;;;;;;;;;;12.40;99.90;;;;;;5154509;27;19918;-38
2022/11/08 01:27:33;;;;;;;;;;;12.40;99.90;;;;;;5154915;27;19999;-39
2022/11/08 01:29:58;;;;;;;;;;;12.40;99.90;;;;;;5154195;27;19911;-43
2022/11/08 01:32:24;;;;;;;;;;;12.30;99.90;;;;;;5154894;27;19915;-38
2022/11/08 01:34:49;;;;;;;;;;;12.30;99.90;;;;;;5154901;27;19917;-41
2022/11/08 01:37:15;;;;;;;;;;;12.30;99.90;;;;;;5153697;27;20026;-39
2022/11/08 01:39:40;;;;;;;;;;;12.30;99.90;;;;;;5154735;27;19907;-39
2022/11/08 01:42:06;;;;;;;;;;;12.20;99.90;;;;;;5154533;27;20396;-39
2022/11/08 01:44:31;;;;;;;;;;;12.20;99.90;;;;;;5153397;27;19954;-38
2022/11/08 01:46:57;;;;;;;;;;;12.20;99.90;;;;;;5154225;27;19911;-39
2022/11/08 01:49:40;;;;;;;;;;;12.20;99.90;;;;;;5154507;27;19915;-39
2022/11/08 01:52:06;;;;;;;;;;;12.20;99.90;;;;;;5153603;27;19953;-39
2022/11/08 01:54:34;;;;;;;;;;;12.20;99.90;;;;;;5154729;27;20300;-40
2022/11/08 01:57:01;;;;;;;;;;;12.20;99.90;;;;;;5154419;27;19926;-38
2022/11/08 01:59:27;;;;;;;;;;;12.10;99.90;;;;;;5153213;27;19911;-38
2022/11/08 02:01:53;;;;;;;;;;;12.10;99.90;;;;;;5154541;27;19916;-39
2022/11/08 02:04:19;;;;;;;;;;;12.10;99.90;;;;;;5154399;27;19915;-39
2022/11/08 02:06:44;;;;;;;;;;;12.00;99.90;;;;;;5153519;27;20274;-39
2022/11/08 02:09:11;;;;;;;;;;;12.00;99.90;;;;;;5154474;27;19966;-39
2022/11/08 02:11:38;;;;;;;;;;;12.00;99.90;;;;;;5153898;27;19915;-38
2022/11/08 02:14:03;;;;;;;;;;;12.00;99.90;;;;;;5152873;27;19932;-38
2022/11/08 02:16:29;;;;;;;;;;;12.00;99.90;;;;;;5153927;27;19919;-40
2022/11/08 02:18:54;;;;;;;;;;;12.00;99.90;;;;;;5154495;27;19930;-38
2022/11/08 02:21:29;;;;;;;;;;;12.00;99.90;;;;;;5153352;27;20002;-38
2022/11/08 02:23:55;;;;;;;;;;;12.00;99.90;;;;;;5154461;27;20055;-39
2022/11/08 02:26:22;;;;;;;;;;;12.00;99.90;;;;;;5153013;27;19980;-39
2022/11/08 02:28:48;;;;;;;;;;;12.00;99.90;;;;;;5154271;27;19911;-38
2022/11/08 02:31:15;;;;;;;;;;;12.00;99.90;;;;;;5154114;27;19911;-38
2022/11/08 02:33:40;;;;;;;;;;;11.90;99.90;;;;;;5153430;27;20352;-38
2022/11/08 02:36:07;;;;;;;;;;;11.90;99.90;;;;;;5153698;27;19970;-39
2022/11/08 02:38:34;;;;;;;;;;;11.90;99.90;;;;;;5154243;27;20381;-40
2022/11/08 02:40:59;;;;;;;;;;;11.90;99.90;;;;;;5153012;27;19911;-39
2022/11/08 02:43:24;;;;;;;;;;;11.90;99.90;;;;;;5153547;27;19926;-38
2022/11/08 02:45:50;;;;;;;;;;;11.90;99.90;;;;;;5153803;27;19930;-39
2022/11/08 02:48:16;;;;;;;;;;;11.80;99.90;;;;;;5153129;27;20001;-38
2022/11/08 02:50:42;;;;;;;;;;;11.80;99.90;;;;;;5153946;27;20419;-39
2022/11/08 02:53:08;;;;;;;;;;;11.80;99.90;;;;;;5156565;27;19907;-38
2022/11/08 02:55:33;;;;;;;;;;;11.80;99.90;;;;;;5156991;27;20391;-38
2022/11/08 02:57:59;;;;;;;;;;;11.70;99.90;;;;;;5157861;27;19915;-42
2022/11/08 03:00:25;;;;;;;;;;;11.70;99.90;;;;;;5157585;27;19907;-41
2022/11/08 03:02:57;;;;;;;;;;;11.70;99.90;;;;;;5157250;27;20346;-39
2022/11/08 03:05:23;;;;;;;;;;;11.70;99.90;;;;;;5157434;27;20373;-39
2022/11/08 03:07:48;;;;;;;;;;;11.60;99.90;;;;;;5157920;27;19963;-38
2022/11/08 03:10:14;;;;;;;;;;;11.70;99.90;;;;;;5156761;27;19999;-40
2022/11/08 03:12:40;;;;;;;;;;;11.60;99.90;;;;;;5157787;27;19911;-38
2022/11/08 03:15:06;;;;;;;;;;;11.70;99.90;;;;;;5157494;27;20355;-39
2022/11/08 03:17:32;;;;;;;;;;;11.60;99.90;;;;;;5156447;27;19996;-39
2022/11/08 03:19:57;;;;;;;;;;;11.60;99.90;;;;;;5157574;27;20441;-39
2022/11/08 03:22:23;;;;;;;;;;;11.60;99.90;;;;;;5156532;27;19922;-42
2022/11/08 03:24:48;;;;;;;;;;;11.60;99.90;;;;;;5157116;27;20323;-38
2022/11/08 03:27:14;;;;;;;;;;;11.60;99.90;;;;;;5156387;27;19911;-40
2022/11/08 03:29:40;;;;;;;;;;;11.60;99.90;;;;;;5156224;27;19972;-38
2022/11/08 03:32:05;;;;;;;;;;;11.60;99.90;;;;;;5156648;27;19948;-40
2022/11/08 03:34:31;;;;;;;;;;;11.50;99.90;;;;;;5157142;27;19915;-42
2022/11/08 03:36:56;;;;;;;;;;;11.60;99.90;;;;;;5155616;27;19915;-39
2022/11/08 03:39:22;;;;;;;;;;;11.60;99.90;;;;;;5156900;27;19911;-39
2022/11/08 03:41:47;;;;;;;;;;;11.50;99.90;;;;;;5157156;27;20380;-41
2022/11/08 03:44:12;;;;;;;;;;;11.60;99.90;;;;;;5155506;27;19927;-42
2022/11/08 03:46:38;;;;;;;;;;;11.50;99.90;;;;;;5156905;27;20002;-39
2022/11/08 03:49:03;;;;;;;;;;;11.50;99.90;;;;;;5156218;27;19907;-40
2022/11/08 03:51:29;;;;;;;;;;;11.50;99.90;;;;;;5155801;27;19971;-41
2022/11/08 03:53:54;;;;;;;;;;;11.50;99.90;;;;;;5157131;27;19907;-39
2022/11/08 03:56:20;;;;;;;;;;;11.40;99.90;;;;;;5156553;27;19911;-38
2022/11/08 03:58:45;;;;;;;;;;;11.40;99.90;;;;;;5156003;27;19911;-40
2022/11/08 04:01:11;;;;;;;;;;;11.40;99.90;;;;;;5156594;27;20365;-42
2022/11/08 04:03:36;;;;;;;;;;;11.40;99.90;;;;;;5156694;27;20255;-39
2022/11/08 04:06:02;;;;;;;;;;;11.40;99.90;;;;;;5155852;27;19918;-38
2022/11/08 04:08:28;;;;;;;;;;;11.40;99.90;;;;;;5156732;27;20005;-39
2022/11/08 04:10:54;;;;;;;;;;;11.40;99.90;;;;;;5156341;27;19938;-40
2022/11/08 04:16:04;;;;;;;;;;;11.30;99.90;;;;;;5156455;27;19979;-38
2022/11/08 04:21:18;;;;;;;;;;;11.30;99.90;;;;;;5156369;27;19924;-38
2022/11/08 04:23:44;;;;;;;;;;;11.30;99.90;;;;;;5156500;27;20350;-38
2022/11/08 04:26:13;;;;;;;;;;;11.30;99.90;;;;;;5155124;27;19942;-38
2022/11/08 04:28:39;;;;;;;;;;;11.30;99.90;;;;;;5156292;27;19918;-38
2022/11/08 04:31:16;;;;;;;;;;;11.20;99.90;;;;;;5155836;27;19907;-40
2022/11/08 04:33:41;;;;;;;;;;;11.20;99.90;;;;;;5155411;27;20285;-40
2022/11/08 04:36:09;;;;;;;;;;;11.20;99.90;;;;;;5155808;27;20007;-41
2022/11/08 04:38:35;;;;;;;;;;;11.10;99.90;;;;;;5156068;27;19937;-39
2022/11/08 04:41:04;;;;;;;;;;;11.20;99.90;;;;;;5154809;27;19915;-39
2022/11/08 04:43:29;;;;;;;;;;;11.10;99.90;;;;;;5154909;27;19919;-39
2022/11/08 04:46:02;;;;;;;;;;;11.10;99.90;;;;;;5155940;27;19911;-40
2022/11/08 04:48:28;;;;;;;;;;;11.10;99.90;;;;;;5154729;27;20010;-38
2022/11/08 04:50:54;;;;;;;;;;;11.10;99.90;;;;;;5155329;27;20359;-40
2022/11/08 04:53:19;;;;;;;;;;;11.00;99.90;;;;;;5155838;27;20289;-40
2022/11/08 04:55:45;;;;;;;;;;;11.00;99.90;;;;;;5154859;27;19914;-38
2022/11/08 04:58:10;;;;;;;;;;;11.00;99.90;;;;;;5155759;27;19911;-39
2022/11/08 05:00:36;;;;;;;;;;;11.00;99.90;;;;;;5155401;27;20349;-39
2022/11/08 05:03:01;;;;;;;;;;;11.00;99.90;;;;;;5154705;27;19919;-39
2022/11/08 05:05:27;;;;;;;;;;;10.90;99.90;;;;;;5155649;27;19911;-38
2022/11/08 05:07:53;;;;;;;;;;;10.90;99.90;;;;;;5154492;27;19972;-41
2022/11/08 05:10:18;;;;;;;;;;;10.90;99.90;;;;;;5154834;27;19919;-42
2022/11/08 05:12:44;;;;;;;;;;;10.90;99.90;;;;;;5155189;27;19911;-39
2022/11/08 05:15:10;;;;;;;;;;;10.90;99.90;;;;;;5153905;27;20325;-39
2022/11/08 05:17:35;;;;;;;;;;;10.90;99.90;;;;;;5155296;27;19915;-41
2022/11/08 05:25:29;;;;;;;;;;;10.90;99.90;;;;;;5155127;27;19933;-40
2022/11/08 05:27:54;;;;;;;;;;;10.90;99.90;;;;;;5155202;27;20342;-39
2022/11/08 05:30:20;;;;;;;;;;;10.80;99.90;;;;;;5154043;27;20073;-39
2022/11/08 05:32:45;;;;;;;;;;;10.80;99.90;;;;;;5155084;27;19960;-38
2022/11/08 05:35:11;;;;;;;;;;;10.70;99.90;;;;;;5154799;27;20391;-42
2022/11/08 05:37:39;;;;;;;;;;;10.70;99.90;;;;;;5153412;27;19958;-38
2022/11/08 05:40:04;;;;;;;;;;;10.70;99.90;;;;;;5154642;27;19914;-41
2022/11/08 05:42:30;;;;;;;;;;;10.70;99.90;;;;;;5154489;27;19934;-40
2022/11/08 05:44:55;;;;;;;;;;;10.70;99.90;;;;;;5153426;27;19919;-38
2022/11/08 05:47:21;;;;;;;;;;;10.70;99.90;;;;;;5154335;27;19911;-42
2022/11/08 05:49:46;;;;;;;;;;;10.70;99.90;;;;;;5154691;27;20262;-39
2022/11/08 05:52:11;;;;;;;;;;;10.70;99.90;;;;;;5153362;27;19911;-39
2022/11/08 05:54:37;;;;;;;;;;;10.60;99.90;;;;;;5154821;27;19911;-38
2022/11/08 05:57:02;;;;;;;;;;;10.60;99.90;;;;;;5153802;27;20400;-38
2022/11/08 05:59:28;;;;;;;;;;;10.60;99.90;;;;;;5154606;27;19907;-40
2022/11/08 06:01:53;;;;;;;;;;;10.60;99.90;;;;;;5154333;27;19911;-38
2022/11/08 06:04:19;;;;;;;;;;;10.60;99.90;;;;;;5153509;27;19919;-41
2022/11/08 06:06:44;;;;;;;;;;;10.50;99.90;;;;;;5154291;27;19912;-39
2022/11/08 06:09:10;;;;;;;;;;;10.50;99.90;;;;;;5154590;27;20413;-40
2022/11/08 06:11:35;;;;;;;;;;;10.50;99.90;;;;;;5153240;27;19911;-40
2022/11/08 06:14:01;;;;;;;;;;;10.50;99.90;;;;;;5154141;27;19911;-39
2022/11/08 06:16:26;;;;;;;;;;;10.40;99.90;;;;;;5154083;27;19934;-38
2022/11/08 06:18:52;;;;;;;;;;;10.50;99.90;;;;;;5153556;27;19911;-38
2022/11/08 06:21:18;;;;;;;;;;;10.40;99.90;;;;;;5154223;27;19918;-41
2022/11/08 06:23:44;;;;;;;;;;;10.40;99.90;;;;;;5154161;27;19960;-39
2022/11/08 06:26:10;;;;;;;;;;;10.40;99.90;;;;;;5153176;27;19979;-38
2022/11/08 06:28:35;;;;;;;;;;;10.40;99.90;;;;;;5157524;27;19918;-39
2022/11/08 06:31:01;;;;;;;;;;;10.40;99.90;;;;;;5158397;27;19934;-42
2022/11/08 06:33:27;;;;;;;;;;;10.40;99.90;;;;;;5157400;27;19915;-38
2022/11/08 06:35:53;;;;;;;;;;;10.40;99.90;;;;;;5157753;27;20696;-39
2022/11/08 06:38:18;;;;;;;;;;;10.30;99.90;;;;;;5157898;27;19911;-39
2022/11/08 06:40:44;;;;;;;;;;;10.30;99.90;;;;;;5157184;27;19917;-38
2022/11/08 06:43:10;;;;;;;;;;;10.30;99.90;;;;;;5157101;27;19919;-38
2022/11/08 06:45:36;;;;;;;;;;;10.30;99.90;;;;;;5158155;27;20404;-38
2022/11/08 06:48:03;;;;;;;;;;;10.40;99.90;;;;;;5157012;27;20353;-39
2022/11/08 06:50:29;;;;;;;;;;;10.40;99.90;;;;;;5158163;27;19960;-39
2022/11/08 06:53:02;;;;;;;;;;;10.40;99.90;;;;;;5158205;27;20354;-38
2022/11/08 06:55:28;;;;;;;;;;;10.40;99.90;;;;;;5136734;27;19916;-39
2022/11/08 06:57:53;;;;;;;;;;;10.40;99.90;;;;;;5137442;27;19915;-44
2022/11/08 07:00:19;;;;;;;;;;;10.50;99.90;;;;;;5137148;27;19965;-44
2022/11/08 07:02:44;;;;;;;;;;;10.50;99.90;;;;;;5137193;27;19981;-38
2022/11/08 07:05:10;;;;;;;;;;;10.50;99.90;;;;;;5136418;27;20377;-38
2022/11/08 07:07:36;;;;;;;;;;;10.60;99.90;;;;;;5148534;27;19918;-38
2022/11/08 07:10:02;;;;;;;;;;;10.60;99.90;;;;;;5157064;27;19915;-39
2022/11/08 07:12:28;;;;;;;;;;;10.70;99.90;;;;;;5156306;27;19917;-38
2022/11/08 07:14:53;;;;;;;;;;;10.70;99.90;;;;;;5156044;27;19911;-38
2022/11/08 07:17:18;;;;;;;;;;;10.70;99.90;;;;;;5156929;27;19967;-40
2022/11/08 07:19:44;;;;;;;;;;;10.70;99.90;;;;;;5157232;27;19911;-40
2022/11/08 07:22:09;;;;;;;;;;;10.80;99.90;;;;;;5155987;27;20232;-39
2022/11/08 07:24:35;;;;;;;;;;;10.80;99.90;;;;;;5157060;27;20331;-42
2022/11/08 07:27:00;;;;;;;;;;;10.80;99.90;;;;;;5156787;27;19932;-38
2022/11/08 07:29:26;;;;;;;;;;;10.90;99.90;;;;;;5155166;27;19911;-39
2022/11/08 07:31:51;;;;;;;;;;;10.90;99.90;;;;;;5156499;27;19907;-39
2022/11/08 07:34:17;;;;;;;;;;;10.80;99.90;;;;;;5156705;27;20288;-44
2022/11/08 07:36:42;;;;;;;;;;;10.90;99.90;;;;;;5156050;27;19916;-38
2022/11/08 07:39:08;;;;;;;;;;;10.90;99.90;;;;;;5156035;27;19997;-38
2022/11/08 07:41:33;;;;;;;;;;;10.90;99.90;;;;;;5156683;27;19919;-39
2022/11/08 07:43:59;;;;;;;;;;;10.90;99.90;;;;;;5155093;27;19940;-38
2022/11/08 07:46:24;;;;;;;;;;;10.90;99.90;;;;;;5156478;27;19959;-39
2022/11/08 07:48:50;;;;;;;;;;;11.00;99.90;;;;;;5156680;27;20281;-39
2022/11/08 07:51:15;;;;;;;;;;;11.00;99.90;;;;;;5155391;27;19911;-41
2022/11/08 07:53:41;;;;;;;;;;;11.00;99.90;;;;;;5156585;27;19907;-38
2022/11/08 07:56:07;;;;;;;;;;;11.00;99.90;;;;;;5156150;27;19911;-37
2022/11/08 07:58:33;;;;;;;;;;;11.00;99.90;;;;;;5155491;27;20377;-39
2022/11/08 08:00:59;;;;;;;;;;;11.10;99.90;;;;;;5156176;27;20000;-38
2022/11/08 08:03:25;;;;;;;;;;;11.10;99.90;;;;;;5156298;27;20262;-38
2022/11/08 08:05:52;;;;;;;;;;;11.20;99.90;;;;;;5154727;27;20410;-46
2022/11/08 08:08:17;;;;;;;;;;;11.20;99.90;;;;;;5156191;27;19907;-39
2022/11/08 08:10:43;;;;;;;;;;;11.30;99.90;;;;;;5155269;27;19952;-41
2022/11/08 08:13:08;;;;;;;;;;;11.40;99.90;;;;;;5155865;27;19998;-38
2022/11/08 08:15:34;;;;;;;;;;;11.50;99.90;;;;;;5155966;27;19907;-39
2022/11/08 08:18:00;;;;;;;;;;;11.60;99.90;;;;;;5154965;27;19915;-39
2022/11/08 08:20:26;;;;;;;;;;;11.70;99.90;;;;;;5155415;27;19925;-38
2022/11/08 08:22:51;;;;;;;;;;;11.70;99.90;;;;;;5154478;27;19914;-39
2022/11/08 08:25:17;;;;;;;;;;;11.90;99.90;;;;;;5153517;27;20357;-41
2022/11/08 08:27:46;;;;;;;;;;;11.90;99.90;;;;;;5154180;27;19911;-40
2022/11/08 08:30:12;;;;;;;;;;;12.00;99.90;;;;;;5150438;27;20657;-38
2022/11/08 08:32:37;;;;;;;;;;;12.10;99.90;;;;;;5153174;27;19946;-40
2022/11/08 08:35:04;;;;;;;;;;;12.10;99.90;;;;;;5153729;27;19935;-43
2022/11/08 08:37:29;;;;;;;;;;;12.20;99.90;;;;;;5151756;27;20009;-39
2022/11/08 08:39:55;;;;;;;;;;;12.20;99.90;;;;;;5152839;27;19994;-37
2022/11/08 08:42:20;;;;;;;;;;;12.20;99.90;;;;;;5153986;27;19914;-39
2022/11/08 08:44:46;;;;;;;;;;;12.30;99.90;;;;;;5153481;27;19987;-39
2022/11/08 08:47:11;;;;;;;;;;;12.30;99.90;;;;;;5152789;27;19914;-38
2022/11/08 08:49:36;;;;;;;;;;;12.40;99.90;;;;;;5152903;27;19995;-40
2022/11/08 08:52:02;;;;;;;;;;;12.40;99.90;;;;;;5153540;27;20514;-39
2022/11/08 08:54:27;;;;;;;;;;;12.40;99.90;;;;;;5152978;27;19907;-40
2022/11/08 08:56:53;;;;;;;;;;;12.50;99.90;;;;;;5153323;27;20003;-39
2022/11/08 08:59:18;;;;;;;;;;;12.50;99.90;;;;;;5153662;27;19907;-39
2022/11/08 09:01:44;;;;;;;;;;;12.50;99.90;;;;;;5153014;27;19907;-39
2022/11/08 09:04:09;;;;;;;;;;;12.60;99.90;;;;;;5153112;27;20001;-40
2022/11/08 09:06:35;;;;;;;;;;;12.60;99.90;;;;;;5154615;27;19908;-44
2022/11/08 09:09:00;;;;;;;;;;;12.70;99.90;;;;;;5153572;27;20001;-39
2022/11/08 09:11:26;;;;;;;;;;;12.80;99.90;;;;;;5154407;27;20272;-39
2022/11/08 09:13:51;;;;;;;;;;;12.80;99.90;;;;;;5153375;27;19911;-40
2022/11/08 09:16:16;;;;;;;;;;;12.90;99.90;;;;;;5150933;27;19945;-47
2022/11/08 09:18:42;;;;;;;;;;;13.00;99.90;;;;;;5152156;27;20180;-39
2022/11/08 09:21:07;;;;;;;;;;;13.10;99.90;;;;;;5152785;27;20396;-38
2022/11/08 09:23:33;;;;;;;;;;;13.20;99.90;;;;;;5152740;27;19911;-42
2022/11/08 09:25:59;;;;;;;;;;;13.30;99.90;;;;;;5152583;27;20277;-40
2022/11/08 09:28:25;;;;;;;;;;;13.40;99.90;;;;;;5152427;27;19914;-40
2022/11/08 09:30:50;;;;;;;;;;;13.40;99.90;;;;;;5153355;27;19911;-41
2022/11/08 09:33:16;;;;;;;;;;;13.50;99.90;;;;;;5153015;27;19907;-38
2022/11/08 09:35:42;;;;;;;;;;;13.60;99.90;;;;;;5152468;27;19952;-42
2022/11/08 09:38:07;;;;;;;;;;;13.70;99.90;;;;;;5153597;27;19911;-39
2022/11/08 09:40:38;;;;;;;;;;;13.80;99.90;;;;;;5153415;27;20362;-38
2022/11/08 09:43:11;;;;;;;;;;;13.90;99.90;;;;;;5151682;27;19919;-39
2022/11/08 09:45:40;;;;;;;;;;;14.00;99.90;;;;;;5152923;27;19911;-39
2022/11/08 09:48:12;;;;;;;;;;;14.10;99.90;;;;;;5153114;27;19993;-40
2022/11/08 09:50:43;;;;;;;;;;;14.20;99.90;;;;;;5152241;27;20315;-40
2022/11/08 09:53:15;;;;;;;;;;;14.20;99.90;;;;;;5153048;27;19913;-43
2022/11/08 09:55:55;;;;;;;;;;;14.20;99.90;;;;;;5153177;27;19914;-39
2022/11/08 09:58:30;;;;;;;;;;;14.20;99.90;;;;;;5152331;27;19911;-39
2022/11/08 10:00:57;;;;;;;;;;;14.10;99.90;;;;;;5152922;27;20361;-39
2022/11/08 10:03:23;;;;;;;;;;;14.10;99.90;;;;;;5152062;27;19918;-39
2022/11/08 10:06:01;;;;;;;;;;;14.10;99.90;;;;;;5148217;27;19907;-39
2022/11/08 10:08:28;;;;;;;;;;;14.20;99.90;;;;;;5152359;27;19911;-41
2022/11/08 10:10:56;;;;;;;;;;;14.20;99.90;;;;;;5151437;27;19979;-40
2022/11/08 10:13:27;;;;;;;;;;;14.20;99.90;;;;;;5152532;27;19911;-39
2022/11/08 10:16:12;;;;;;;;;;;14.20;99.90;;;;;;5152078;27;20006;-40
2022/11/08 10:18:53;;;;;;;;;;;14.30;99.90;;;;;;5151974;27;20006;-41
2022/11/08 10:21:22;;;;;;;;;;;14.30;99.90;;;;;;5153306;27;19959;-39
2022/11/08 10:24:10;;;;;;;;;;;14.40;99.90;;;;;;5153008;27;19907;-41
2022/11/08 10:26:38;;;;;;;;;;;14.40;99.90;;;;;;5150860;27;20365;-39
2022/11/08 10:29:20;;;;;;;;;;;14.40;99.90;;;;;;5152482;27;19981;-40
2022/11/08 10:31:47;;;;;;;;;;;14.40;99.90;;;;;;5152332;27;19914;-39
2022/11/08 10:34:21;;;;;;;;;;;14.40;99.90;;;;;;5152811;27;19907;-39
2022/11/08 10:36:48;;;;;;;;;;;14.50;99.90;;;;;;5150910;27;19987;-39
2022/11/08 10:39:22;;;;;;;;;;;14.50;99.90;;;;;;5150191;27;20009;-39
2022/11/08 10:41:51;;;;;;;;;;;14.50;99.90;;;;;;5152443;27;19907;-38
2022/11/08 10:44:19;;;;;;;;;;;14.50;99.90;;;;;;5152570;27;19930;-40
2022/11/08 10:46:54;;;;;;;;;;;14.50;99.90;;;;;;5151784;27;19938;-39
2022/11/08 10:49:22;;;;;;;;;;;14.50;99.90;;;;;;5153038;27;19948;-44
2022/11/08 10:51:50;;;;;;;;;;;14.40;99.90;;;;;;5153377;27;19918;-40
2022/11/08 10:54:34;;;;;;;;;;;14.40;99.90;;;;;;5152448;27;19918;-41
2022/11/08 10:56:59;;;;;;;;;;;14.40;99.90;;;;;;5152104;27;19915;-40
2022/11/08 10:59:29;;;;;;;;;;;14.30;99.90;;;;;;5153104;27;19908;-39
2022/11/08 11:01:55;;;;;;;;;;;14.30;99.90;;;;;;5152499;27;19907;-40
2022/11/08 11:04:25;;;;;;;;;;;14.30;99.90;;;;;;5152793;27;19914;-40
2022/11/08 11:06:51;;;;;;;;;;;14.20;99.90;;;;;;5145907;27;19918;-40
2022/11/08 11:09:18;;;;;;;;;;;14.20;99.90;;;;;;5133015;27;19923;-39
2022/11/08 11:11:44;;;;;;;;;;;14.30;99.90;;;;;;5152314;27;19915;-39
2022/11/08 11:14:12;;;;;;;;;;;14.20;99.90;;;;;;5153925;27;19942;-41
2022/11/08 11:16:47;;;;;;;;;;;14.20;99.90;;;;;;5157138;27;19922;-41
2022/11/08 11:19:13;;;;;;;;;;;14.20;99.90;;;;;;5152878;27;20418;-39
2022/11/08 11:21:39;;;;;;;;;;;14.20;99.90;;;;;;5155658;27;19936;-41
2022/11/08 11:24:07;;;;;;;;;;;14.30;99.90;;;;;;5156418;27;19907;-43
2022/11/08 11:26:44;;;;;;;;;;;14.30;99.90;;;;;;5155801;27;20266;-44
2022/11/08 11:29:21;;;;;;;;;;;14.40;99.90;;;;;;5155465;27;19907;-41
2022/11/08 11:31:48;;;;;;;;;;;14.50;99.90;;;;;;5156522;27;19907;-39
2022/11/08 11:34:16;;;;;;;;;;;14.60;99.90;;;;;;5155725;27;20418;-39
2022/11/08 11:36:48;;;;;;;;;;;14.60;99.90;;;;;;5155634;27;19972;-40
2022/11/08 11:39:17;;;;;;;;;;;14.70;99.90;;;;;;5155452;27;20002;-40
2022/11/08 11:42:01;;;;;;;;;;;14.70;99.90;;;;;;5155877;27;20334;-40
2022/11/08 11:44:37;;;;;;;;;;;14.80;99.90;;;;;;5156430;27;19923;-39
2022/11/08 11:47:20;;;;;;;;;;;14.80;99.90;;;;;;5155842;27;20009;-41
2022/11/08 11:49:46;;;;;;;;;;;14.80;99.90;;;;;;5155517;27;20457;-41
2022/11/08 11:52:17;;;;;;;;;;;14.80;99.90;;;;;;5155225;27;19922;-40
2022/11/08 11:54:43;;;;;;;;;;;14.90;99.90;;;;;;5155889;27;19925;-41
2022/11/08 11:57:15;;;;;;;;;;;14.90;99.90;;;;;;5153450;27;19926;-42
2022/11/08 11:59:46;;;;;;;;;;;15.00;99.90;;;;;;5152123;27;19911;-39
2022/11/08 12:02:41;;;;;;;;;;;15.10;99.90;;;;;;5154381;27;19914;-39
2022/11/08 12:05:24;;;;;;;;;;;15.20;99.90;;;;;;5153767;27;19907;-39
2022/11/08 12:08:07;;;;;;;;;;;15.20;99.90;;;;;;5153442;27;19961;-39
2022/11/08 12:10:33;;;;;;;;;;;15.30;99.90;;;;;;5152848;27;20361;-44
2022/11/08 12:13:10;;;;;;;;;;;15.20;99.90;;;;;;5154162;27;19959;-39
2022/11/08 12:15:54;;;;;;;;;;;15.20;99.90;;;;;;5154563;27;20409;-39
2022/11/08 12:18:26;;;;;;;;;;;15.20;99.90;;;;;;5150940;27;19964;-41
2022/11/08 12:20:55;;;;;;;;;;;15.20;99.90;;;;;;5153970;27;20005;-39
2022/11/08 12:23:26;;;;;;;;;;;15.20;99.90;;;;;;5151466;27;20365;-39
2022/11/08 12:25:59;;;;;;;;;;;15.30;99.90;;;;;;5152115;27;19968;-40
2022/11/08 12:28:31;;;;;;;;;;;15.20;99.90;;;;;;5152280;27;19953;-44
2022/11/08 12:31:16;;;;;;;;;;;15.20;99.90;;;;;;5153945;27;19907;-45
2022/11/08 12:33:48;;;;;;;;;;;15.20;99.90;;;;;;5155404;27;19961;-41
2022/11/08 12:36:24;;;;;;;;;;;15.10;99.90;;;;;;5154589;27;20196;-43
2022/11/08 12:39:08;;;;;;;;;;;15.10;99.90;;;;;;5154691;27;19911;-38
2022/11/08 12:41:56;;;;;;;;;;;15.00;99.90;;;;;;5155604;27;19907;-39
2022/11/08 12:44:32;;;;;;;;;;;15.00;99.90;;;;;;5155077;27;19919;-39
2022/11/08 12:47:10;;;;;;;;;;;15.00;99.90;;;;;;5155385;27;19911;-38
2022/11/08 12:49:36;;;;;;;;;;;14.90;99.90;;;;;;5155573;27;20292;-39
2022/11/08 12:52:25;;;;;;;;;;;14.90;99.90;;;;;;5154039;27;19998;-39
2022/11/08 12:54:53;;;;;;;;;;;14.90;99.90;;;;;;5155042;27;19999;-43
2022/11/08 12:57:26;;;;;;;;;;;14.80;99.90;;;;;;5155058;27;19915;-40
2022/11/08 12:59:56;;;;;;;;;;;14.80;99.90;;;;;;5154170;27;19907;-41
2022/11/08 13:02:23;;;;;;;;;;;14.80;99.90;;;;;;5154746;27;19911;-40
2022/11/08 13:04:52;;;;;;;;;;;14.80;99.90;;;;;;5154986;27;19929;-40
2022/11/08 13:07:40;;;;;;;;;;;14.80;99.90;;;;;;5154401;27;19907;-39
2022/11/08 13:10:11;;;;;;;;;;;14.80;99.90;;;;;;5151026;27;20018;-41
2022/11/08 13:12:42;;;;;;;;;;;14.90;99.90;;;;;;5149107;27;20002;-42
2022/11/08 13:15:17;;;;;;;;;;;14.90;99.90;;;;;;5147217;27;19994;-40
2022/11/08 13:18:03;;;;;;;;;;;15.00;99.90;;;;;;5151297;27;20289;-40
2022/11/08 13:20:42;;;;;;;;;;;15.10;99.90;;;;;;5152150;27;19941;-41
2022/11/08 13:23:10;;;;;;;;;;;15.10;99.90;;;;;;5154789;27;19908;-39
2022/11/08 13:25:37;;;;;;;;;;;15.10;99.90;;;;;;5154305;27;20055;-39
2022/11/08 13:28:22;;;;;;;;;;;15.20;99.90;;;;;;5153405;27;19989;-39
2022/11/08 13:30:55;;;;;;;;;;;15.20;99.90;;;;;;5154528;27;19914;-39
2022/11/08 13:33:25;;;;;;;;;;;15.40;99.90;;;;;;5154360;27;19907;-39
2022/11/08 13:36:09;;;;;;;;;;;15.50;99.90;;;;;;5153158;27;20362;-41
2022/11/08 13:38:38;;;;;;;;;;;15.40;99.90;;;;;;5154039;27;19919;-40
2022/11/08 13:41:23;;;;;;;;;;;15.40;99.90;;;;;;5154845;27;20001;-39
2022/11/08 13:43:49;;;;;;;;;;;15.40;99.90;;;;;;5154239;27;20009;-39
2022/11/08 13:46:26;;;;;;;;;;;15.30;99.90;;;;;;5153882;27;19915;-40
2022/11/08 13:49:02;;;;;;;;;;;15.20;99.90;;;;;;5153353;27;19997;-42
2022/11/08 13:51:28;;;;;;;;;;;15.20;99.90;;;;;;5154067;27;19908;-39
2022/11/08 13:54:09;;;;;;;;;;;15.10;99.90;;;;;;5153844;27;20383;-39
2022/11/08 13:56:41;;;;;;;;;;;15.10;99.90;;;;;;5152903;27;19968;-39
2022/11/08 13:59:25;;;;;;;;;;;15.10;99.90;;;;;;5153627;27;19933;-43
2022/11/08 14:01:57;;;;;;;;;;;15.00;99.90;;;;;;5154111;27;19907;-39
2022/11/08 14:04:28;;;;;;;;;;;15.00;99.90;;;;;;5151175;27;19911;-39
2022/11/08 14:06:59;;;;;;;;;;;15.00;99.90;;;;;;5153032;27;19908;-40
2022/11/08 14:09:25;;;;;;;;;;;14.90;99.90;;;;;;5152409;27;20369;-40
2022/11/08 14:11:51;;;;;;;;;;;14.90;99.90;;;;;;5153365;27;19907;-43
2022/11/08 14:14:33;;;;;;;;;;;14.80;99.90;;;;;;5153364;27;19907;-39
2022/11/08 14:17:07;;;;;;;;;;;14.80;99.90;;;;;;5152875;27;19916;-41
2022/11/08 14:19:35;;;;;;;;;;;14.70;99.90;;;;;;5153325;27;19919;-39
2022/11/08 14:22:01;;;;;;;;;;;14.70;99.90;;;;;;5153475;27;19918;-39
2022/11/08 14:24:33;;;;;;;;;;;14.70;99.90;;;;;;5152550;27;19907;-40
2022/11/08 14:26:59;;;;;;;;;;;14.70;99.90;;;;;;5152862;27;20270;-39
2022/11/08 14:29:25;;;;;;;;;;;14.70;99.90;;;;;;5152759;27;19915;-40
2022/11/08 14:32:04;;;;;;;;;;;14.70;99.90;;;;;;5152214;27;19914;-39
2022/11/08 14:34:31;;;;;;;;;;;14.70;99.90;;;;;;5151461;27;19911;-41
2022/11/08 14:36:57;;;;;;;;;;;14.60;99.90;;;;;;5152732;27;20404;-39
2022/11/08 14:39:33;;;;;;;;;;;14.60;99.90;;;;;;5151323;27;20274;-41
2022/11/08 14:42:01;;;;;;;;;;;14.60;99.90;;;;;;5152291;27;19914;-39